Time;durP1;ratioP1;P1;durP2;ratioP2;P2;SDS_P1;SDS_P2;PMS_P1;PMS_P2;Temp;Humidity;BMP_temperature;BMP_pressure;BME280_temperature;BME280_humidity;BME280_pressure;Samples;Min_cycle;Max_cycle;Signal;HPM_P1;HPM_P2
2021/10/23 00:06:13;;;;;;;21.75;9.85;;;4.50;99.90;;;;;;25840840;23;20059;-53
2021/10/23 00:16:16;;;;;;;17.42;7.60;;;4.50;99.90;;;;;;25828067;23;20016;-55
2021/10/23 00:26:20;;;;;;;15.63;7.50;;;4.60;99.90;;;;;;25322050;23;20517;-52
2021/10/23 00:36:23;;;;;;;15.75;6.97;;;4.80;99.90;;;;;;25324993;23;20215;-52
2021/10/23 00:46:26;;;;;;;11.50;7.05;;;4.80;99.90;;;;;;25301424;23;20045;-53
2021/10/23 00:56:29;;;;;;;13.43;7.13;;;4.70;99.90;;;;;;25322196;23;20068;-52
2021/10/23 01:06:32;;;;;;;16.02;8.25;;;4.80;99.90;;;;;;25269339;23;20010;-55
2021/10/23 01:16:35;;;;;;;23.60;11.95;;;4.60;99.90;;;;;;25316457;23;20037;-54
2021/10/23 01:26:39;;;;;;;18.77;9.02;;;4.50;99.90;;;;;;25292238;23;20042;-51
2021/10/23 01:36:44;;;;;;;42.28;17.77;;;4.40;99.90;;;;;;25316325;23;20006;-54
2021/10/23 01:46:47;;;;;;;48.33;18.65;;;4.60;99.90;;;;;;25318620;23;20030;-55
2021/10/23 01:56:52;;;;;;;40.60;16.88;;;5.10;99.90;;;;;;25320063;23;20018;-54
2021/10/23 02:06:55;;;;;;;33.17;15.45;;;5.10;99.90;;;;;;25273147;23;20307;-53
2021/10/23 02:16:58;;;;;;;37.35;16.58;;;5.10;99.90;;;;;;25325695;22;20343;-55
2021/10/23 02:27:01;;;;;;;49.40;21.88;;;5.30;99.90;;;;;;25330209;23;20014;-54
2021/10/23 02:37:04;;;;;;;33.22;15.48;;;5.90;99.90;;;;;;25396198;23;20014;-51
2021/10/23 02:47:07;;;;;;;24.65;12.25;;;6.30;99.90;;;;;;25331765;23;20018;-57
2021/10/23 02:57:11;;;;;;;20.50;10.90;;;6.20;99.90;;;;;;25341053;23;20079;-53
2021/10/23 03:07:13;;;;;;;18.15;9.98;;;6.10;99.90;;;;;;25432379;23;20014;-54
2021/10/23 03:17:16;;;;;;;16.58;9.52;;;6.00;99.90;;;;;;25469853;22;20032;-53
2021/10/23 03:27:23;;;;;;;8.68;5.28;;;5.90;99.90;;;;;;25334031;23;20018;-56
2021/10/23 03:37:30;;;;;;;5.60;2.60;;;5.90;99.90;;;;;;25339437;23;20312;-52
2021/10/23 03:47:33;;;;;;;4.38;2.20;;;5.80;99.90;;;;;;25335193;23;20524;-53
2021/10/23 03:57:37;;;;;;;2.25;1.13;;;5.80;99.90;;;;;;25338645;23;20350;-53
2021/10/23 04:07:40;;;;;;;3.33;1.15;;;5.70;99.90;;;;;;25309182;23;20506;-52
2021/10/23 04:17:44;;;;;;;1.30;0.73;;;5.70;99.90;;;;;;25311633;22;20026;-55
2021/10/23 04:27:47;;;;;;;1.15;0.65;;;5.70;99.90;;;;;;25335433;23;20409;-53
2021/10/23 04:37:51;;;;;;;3.33;0.50;;;5.90;99.90;;;;;;25307513;23;20009;-53
2021/10/23 04:47:54;;;;;;;2.40;0.60;;;5.90;99.90;;;;;;25303676;23;20088;-54
2021/10/23 04:57:58;;;;;;;2.00;0.70;;;5.80;99.90;;;;;;25328959;23;20013;-54
2021/10/23 05:08:01;;;;;;;0.77;0.38;;;5.40;99.90;;;;;;25327843;23;20332;-53
2021/10/23 05:18:04;;;;;;;1.65;0.55;;;5.30;99.90;;;;;;25327785;22;20038;-56
2021/10/23 05:28:07;;;;;;;1.52;0.60;;;5.40;99.90;;;;;;25331452;23;20041;-53
2021/10/23 05:38:10;;;;;;;2.83;0.68;;;5.30;99.90;;;;;;25327321;23;20014;-55
2021/10/23 05:48:14;;;;;;;1.23;0.50;;;5.30;99.90;;;;;;25297966;23;20067;-52
2021/10/23 05:58:17;;;;;;;1.38;0.60;;;5.40;99.90;;;;;;25318641;23;20014;-54
2021/10/23 06:08:20;;;;;;;2.03;0.70;;;5.40;99.90;;;;;;25319608;23;20389;-56
2021/10/23 06:18:23;;;;;;;5.40;0.70;;;5.60;99.90;;;;;;25326163;22;20030;-56
2021/10/23 06:28:27;;;;;;;1.45;0.32;;;5.80;99.90;;;;;;25295570;23;20017;-54
2021/10/23 06:38:31;;;;;;;1.60;0.88;;;6.00;99.90;;;;;;25322199;23;20075;-54
2021/10/23 06:48:34;;;;;;;1.55;0.65;;;6.10;99.90;;;;;;25317776;23;20013;-53
2021/10/23 06:58:38;;;;;;;1.63;0.60;;;6.40;99.90;;;;;;25325884;23;20071;-53
2021/10/23 07:08:40;;;;;;;1.98;0.30;;;6.60;99.90;;;;;;25325916;23;20139;-52
2021/10/23 07:18:43;;;;;;;0.68;0.25;;;7.20;99.90;;;;;;25304536;23;20084;-59
2021/10/23 07:28:47;;;;;;;1.10;0.40;;;7.80;99.90;;;;;;25325772;23;20083;-56
2021/10/23 07:38:50;;;;;;;1.02;0.30;;;8.50;99.90;;;;;;25323748;23;20486;-57
2021/10/23 07:48:53;;;;;;;0.70;0.30;;;8.90;99.90;;;;;;25322337;23;20502;-57
2021/10/23 07:58:58;;;;;;;1.52;0.30;;;9.30;99.90;;;;;;25319475;23;20010;-55
2021/10/23 08:09:02;;;;;;;3.45;0.40;;;9.50;98.80;;;;;;25329112;23;20014;-56
2021/10/23 08:19:05;;;;;;;1.95;0.30;;;9.90;98.40;;;;;;25324954;22;20026;-57
2021/10/23 08:29:09;;;;;;;1.63;0.52;;;10.30;99.60;;;;;;25321361;23;20036;-57
2021/10/23 08:39:13;;;;;;;1.40;0.40;;;11.00;99.90;;;;;;25296512;23;20094;-55
2021/10/23 08:49:17;;;;;;;1.95;0.65;;;11.70;99.90;;;;;;25319840;23;20063;-58
2021/10/23 08:59:20;;;;;;;0.90;0.43;;;11.70;99.90;;;;;;25317589;23;20397;-58
2021/10/23 09:09:24;;;;;;;1.60;0.77;;;12.40;99.90;;;;;;25319059;23;20014;-55
2021/10/23 09:19:48;;;;;;;0.90;0.60;;;13.20;99.90;;;;;;25316800;23;20029;-54
2021/10/23 09:29:59;;;;;;;0.90;0.50;;;13.80;99.90;;;;;;25297214;23;20023;-57
2021/10/23 09:40:07;;;;;;;0.73;0.40;;;13.80;99.90;;;;;;25298159;23;20014;-59
2021/10/23 09:50:21;;;;;;;3.67;1.20;;;13.90;96.20;;;;;;25321662;23;20041;-59
2021/10/23 10:00:27;;;;;;;3.67;2.50;;;14.00;98.80;;;;;;25323502;23;20048;-59
2021/10/23 10:10:38;;;;;;;3.70;2.65;;;14.20;99.90;;;;;;25303575;23;20099;-56
2021/10/23 10:20:44;;;;;;;5.43;2.80;;;14.40;99.90;;;;;;25336930;22;20025;-60
2021/10/23 10:30:55;;;;;;;4.95;2.78;;;14.90;99.90;;;;;;25296407;23;20083;-58
2021/10/23 10:51:29;;;;;;;5.35;2.78;;;15.40;99.90;;;;;;25321026;23;19913;-59
2021/10/23 11:01:33;;;;;;;4.07;2.53;;;15.60;99.90;;;;;;25321361;23;20505;-60
2021/10/23 11:11:52;;;;;;;4.05;2.83;;;15.80;99.90;;;;;;25322222;23;20044;-58
2021/10/23 11:22:03;;;;;;;4.25;2.63;;;15.80;99.90;;;;;;25298003;23;20359;-61
2021/10/23 11:32:07;;;;;;;3.95;2.33;;;16.30;99.90;;;;;;25300874;23;20018;-59
2021/10/23 11:42:26;;;;;;;3.85;2.22;;;16.00;99.90;;;;;;25300524;23;20021;-58
2021/10/23 11:52:33;;;;;;;4.25;2.83;;;16.40;99.90;;;;;;25297920;23;20068;-60
2021/10/23 12:02:44;;;;;;;3.58;2.67;;;16.20;99.90;;;;;;25318775;23;20068;-59
2021/10/23 12:12:49;;;;;;;5.18;3.30;;;16.30;99.90;;;;;;25296674;23;20018;-59
2021/10/23 12:22:52;;;;;;;5.00;3.25;;;16.50;99.90;;;;;;24218950;22;10000315;-60
2021/10/23 12:33:01;;;;;;;4.45;3.10;;;16.90;99.90;;;;;;25317655;23;20109;-61
2021/10/23 12:43:14;;;;;;;5.07;3.07;;;17.10;99.90;;;;;;25320099;23;20014;-61
2021/10/23 12:53:17;;;;;;;6.20;3.08;;;17.40;99.90;;;;;;23118797;23;10000995;-59
2021/10/23 13:03:20;;;;;;;5.47;3.60;;;17.30;98.50;;;;;;24161303;23;10000561;-60
2021/10/23 13:25:45;;;;;;;7.65;3.80;;;16.50;99.50;;;;;;24228710;22;10000939;-57
2021/10/23 13:35:52;;;;;;;9.03;4.43;;;15.30;99.90;;;;;;25271308;23;20025;-59
2021/10/23 13:45:54;;;;;;;6.82;4.88;;;14.30;99.90;;;;;;25319750;23;20010;-58
2021/10/23 13:55:57;;;;;;;9.95;5.22;;;13.70;99.90;;;;;;25298870;23;20044;-56
2021/10/23 14:06:04;;;;;;;8.35;5.32;;;13.00;99.90;;;;;;25328588;23;20101;-53
2021/10/23 14:16:09;;;;;;;13.57;7.03;;;12.30;99.90;;;;;;25301796;23;20040;-57
2021/10/23 14:26:17;;;;;;;16.90;8.57;;;11.90;99.90;;;;;;25327749;23;20029;-56
2021/10/23 14:36:22;;;;;;;16.70;9.38;;;11.70;99.90;;;;;;25334903;23;20018;-57
2021/10/23 14:46:27;;;;;;;15.95;8.75;;;11.40;99.90;;;;;;25314401;23;20385;-58
2021/10/23 14:56:31;;;;;;;19.08;10.25;;;10.90;99.90;;;;;;25281246;23;20018;-54
2021/10/23 15:06:35;;;;;;;17.92;10.52;;;10.50;99.90;;;;;;25338378;23;20022;-56
2021/10/23 15:16:38;;;;;;;12.00;4.75;;;9.90;99.90;;;;;;25310882;23;20047;-56
2021/10/23 15:26:42;;;;;;;4.60;2.55;;;9.20;99.90;;;;;;25332409;23;20075;-54
2021/10/23 15:36:47;;;;;;;8.52;4.20;;;8.50;99.90;;;;;;25309314;23;20018;-53
2021/10/23 15:46:52;;;;;;;9.73;5.00;;;7.90;99.90;;;;;;25325888;23;20014;-55
2021/10/23 15:56:56;;;;;;;6.78;3.90;;;7.20;99.90;;;;;;25326397;23;20022;-56
2021/10/23 16:07:01;;;;;;;10.07;5.82;;;6.80;99.90;;;;;;25335731;23;20010;-53
2021/10/23 16:17:04;;;;;;;7.80;4.90;;;6.60;99.90;;;;;;25308232;23;20014;-56
2021/10/23 16:27:08;;;;;;;7.88;3.88;;;6.50;99.90;;;;;;25341222;23;20014;-52
2021/10/23 16:37:11;;;;;;;7.93;4.57;;;6.30;99.90;;;;;;25342157;23;20043;-53
2021/10/23 16:47:15;;;;;;;11.90;5.65;;;5.90;99.90;;;;;;25340712;23;20517;-57
2021/10/23 16:57:17;;;;;;;9.57;5.32;;;5.70;99.90;;;;;;25295683;23;20055;-51
2021/10/23 17:07:23;;;;;;;14.25;6.03;;;5.70;99.90;;;;;;25331881;23;20014;-53
2021/10/23 17:17:29;;;;;;;18.33;8.23;;;5.70;99.90;;;;;;25313143;23;20022;-56
2021/10/23 17:27:33;;;;;;;17.85;8.30;;;6.30;99.90;;;;;;25338364;23;20022;-53
2021/10/23 17:37:38;;;;;;;17.33;8.57;;;6.60;99.90;;;;;;25309514;23;20321;-55
2021/10/23 17:47:42;;;;;;;16.35;9.05;;;6.60;99.90;;;;;;25310015;23;20068;-56
2021/10/23 17:57:46;;;;;;;19.90;10.52;;;6.80;99.90;;;;;;25332645;23;20018;-55
2021/10/23 18:07:52;;;;;;;25.15;11.57;;;7.10;99.90;;;;;;25331563;23;20048;-54
2021/10/23 18:18:08;;;;;;;21.40;11.23;;;7.30;99.90;;;;;;25338719;23;20062;-56
2021/10/23 18:28:13;;;;;;;22.05;12.38;;;7.30;99.90;;;;;;25335292;23;20048;-52
2021/10/23 18:38:23;;;;;;;17.42;9.95;;;7.30;99.90;;;;;;25336149;23;20010;-57
2021/10/23 18:48:26;;;;;;;18.38;9.77;;;7.20;99.90;;;;;;25308276;23;20018;-53
2021/10/23 18:58:29;;;;;;;20.58;11.02;;;7.30;99.90;;;;;;25333974;23;20014;-54
2021/10/23 19:08:32;;;;;;;17.95;10.27;;;7.30;99.90;;;;;;25334036;23;20018;-52
2021/10/23 19:18:38;;;;;;;19.77;9.45;;;7.30;99.90;;;;;;25334834;23;20480;-56
2021/10/23 19:28:44;;;;;;;13.85;7.90;;;7.40;99.90;;;;;;25334451;23;20491;-58
2021/10/23 19:38:48;;;;;;;14.40;8.00;;;7.60;99.90;;;;;;25334254;23;20022;-58
2021/10/23 19:48:52;;;;;;;13.77;9.00;;;7.70;99.90;;;;;;25332183;23;20053;-56
2021/10/23 19:58:55;;;;;;;16.58;8.85;;;7.50;99.90;;;;;;25351988;23;20053;-52
2021/10/23 20:08:58;;;;;;;12.30;7.40;;;7.40;99.90;;;;;;25329778;23;20017;-55
2021/10/23 20:19:01;;;;;;;13.82;7.20;;;7.40;99.90;;;;;;25306411;23;20347;-55
2021/10/23 20:29:05;;;;;;;14.98;7.70;;;6.90;99.90;;;;;;25328911;23;20080;-54
2021/10/23 20:39:09;;;;;;;15.55;8.00;;;6.50;99.90;;;;;;25307931;23;20416;-54
2021/10/23 20:49:13;;;;;;;15.55;8.18;;;6.00;99.90;;;;;;25326314;23;20018;-55
2021/10/23 20:59:16;;;;;;;19.83;8.13;;;5.80;99.90;;;;;;25323832;23;20102;-56
2021/10/23 21:09:19;;;;;;;14.77;7.80;;;5.70;99.90;;;;;;25299337;23;20032;-56
2021/10/23 21:19:22;;;;;;;17.30;9.95;;;5.70;99.90;;;;;;25297967;23;20075;-51
2021/10/23 21:29:28;;;;;;;17.65;9.40;;;5.40;99.90;;;;;;24200785;22;10000550;-53
2021/10/23 21:39:32;;;;;;;25.58;12.38;;;5.10;99.90;;;;;;25326690;23;20010;-53
2021/10/23 21:49:35;;;;;;;20.77;10.80;;;5.00;99.90;;;;;;25327678;23;20022;-53
2021/10/23 21:59:38;;;;;;;19.27;10.35;;;5.00;99.90;;;;;;25331877;23;20010;-57
2021/10/23 22:09:41;;;;;;;10.18;5.88;;;5.10;99.90;;;;;;25334197;23;20018;-51
2021/10/23 22:19:46;;;;;;;16.65;9.60;;;5.00;99.90;;;;;;25280043;23;20022;-53
2021/10/23 22:29:51;;;;;;;11.70;7.45;;;4.80;99.90;;;;;;25333161;23;20508;-57
2021/10/23 22:39:55;;;;;;;11.60;6.80;;;4.60;99.90;;;;;;25344407;23;20040;-54
2021/10/23 22:49:59;;;;;;;19.55;9.18;;;4.40;99.90;;;;;;25340806;23;20083;-51
2021/10/23 23:00:03;;;;;;;25.13;10.50;;;4.20;99.90;;;;;;25311747;23;20018;-53
2021/10/23 23:10:09;;;;;;;26.20;14.18;;;4.20;99.90;;;;;;25340439;23;20060;-56
2021/10/23 23:20:12;;;;;;;31.10;15.02;;;4.20;99.90;;;;;;25315200;23;20030;-52
2021/10/23 23:30:16;;;;;;;30.30;13.60;;;4.30;99.90;;;;;;25342410;23;20063;-55
2021/10/23 23:40:19;;;;;;;37.28;16.77;;;4.10;99.90;;;;;;25311246;23;20071;-55
2021/10/23 23:50:23;;;;;;;31.02;16.73;;;3.90;99.90;;;;;;25336042;23;20022;-51
